sensor_id;sensor_type;location;lat;lon;timestamp;P1;durP1;ratioP1;P2;durP2;ratioP2
6505;SDS011;3286;49.858;8.768;2024-02-14T00:00:08;0.97;;;0.67;;
6505;SDS011;3286;49.858;8.768;2024-02-14T00:02:38;3.03;;;1.07;;
6505;SDS011;3286;49.858;8.768;2024-02-14T00:05:05;1.90;;;1.00;;
6505;SDS011;3286;49.858;8.768;2024-02-14T00:07:33;0.77;;;0.67;;
6505;SDS011;3286;49.858;8.768;2024-02-14T00:09:59;1.60;;;0.97;;
6505;SDS011;3286;49.858;8.768;2024-02-14T00:12:26;3.33;;;1.10;;
6505;SDS011;3286;49.858;8.768;2024-02-14T00:14:53;1.73;;;0.73;;
6505;SDS011;3286;49.858;8.768;2024-02-14T00:17:21;3.67;;;1.30;;
6505;SDS011;3286;49.858;8.768;2024-02-14T00:19:47;0.83;;;0.60;;
6505;SDS011;3286;49.858;8.768;2024-02-14T00:22:14;1.73;;;0.70;;
6505;SDS011;3286;49.858;8.768;2024-02-14T00:24:41;1.07;;;0.90;;
6505;SDS011;3286;49.858;8.768;2024-02-14T00:27:08;2.67;;;1.17;;
6505;SDS011;3286;49.858;8.768;2024-02-14T00:29:35;1.80;;;1.13;;
6505;SDS011;3286;49.858;8.768;2024-02-14T00:32:01;1.60;;;0.93;;
6505;SDS011;3286;49.858;8.768;2024-02-14T00:34:29;4.37;;;1.13;;
6505;SDS011;3286;49.858;8.768;2024-02-14T00:36:55;1.87;;;0.80;;
6505;SDS011;3286;49.858;8.768;2024-02-14T00:39:22;1.47;;;1.03;;
6505;SDS011;3286;49.858;8.768;2024-02-14T00:41:49;0.87;;;0.77;;
6505;SDS011;3286;49.858;8.768;2024-02-14T00:44:17;3.03;;;1.00;;
6505;SDS011;3286;49.858;8.768;2024-02-14T00:46:44;1.60;;;1.10;;
6505;SDS011;3286;49.858;8.768;2024-02-14T00:49:11;3.20;;;0.93;;
6505;SDS011;3286;49.858;8.768;2024-02-14T00:51:40;2.20;;;0.90;;
6505;SDS011;3286;49.858;8.768;2024-02-14T00:54:06;2.00;;;1.10;;
6505;SDS011;3286;49.858;8.768;2024-02-14T00:56:33;1.07;;;0.97;;
6505;SDS011;3286;49.858;8.768;2024-02-14T00:59:00;1.10;;;0.97;;
6505;SDS011;3286;49.858;8.768;2024-02-14T01:01:26;2.30;;;0.90;;
6505;SDS011;3286;49.858;8.768;2024-02-14T01:03:53;6.13;;;1.17;;
6505;SDS011;3286;49.858;8.768;2024-02-14T01:06:20;2.20;;;1.00;;
6505;SDS011;3286;49.858;8.768;2024-02-14T01:08:48;1.87;;;1.10;;
6505;SDS011;3286;49.858;8.768;2024-02-14T01:11:15;1.80;;;1.00;;
6505;SDS011;3286;49.858;8.768;2024-02-14T01:13:42;1.10;;;0.90;;
6505;SDS011;3286;49.858;8.768;2024-02-14T01:16:09;2.33;;;1.03;;
6505;SDS011;3286;49.858;8.768;2024-02-14T01:18:36;1.60;;;1.10;;
6505;SDS011;3286;49.858;8.768;2024-02-14T01:21:03;2.73;;;1.43;;
6505;SDS011;3286;49.858;8.768;2024-02-14T01:23:30;2.97;;;1.23;;
6505;SDS011;3286;49.858;8.768;2024-02-14T01:26:00;1.57;;;1.10;;
6505;SDS011;3286;49.858;8.768;2024-02-14T01:28:27;3.00;;;1.03;;
6505;SDS011;3286;49.858;8.768;2024-02-14T01:30:54;2.47;;;1.40;;
6505;SDS011;3286;49.858;8.768;2024-02-14T01:33:22;2.87;;;1.33;;
6505;SDS011;3286;49.858;8.768;2024-02-14T01:35:48;4.10;;;1.53;;
6505;SDS011;3286;49.858;8.768;2024-02-14T01:38:15;3.30;;;1.30;;
6505;SDS011;3286;49.858;8.768;2024-02-14T01:40:42;5.03;;;1.40;;
6505;SDS011;3286;49.858;8.768;2024-02-14T01:43:19;5.10;;;1.10;;
6505;SDS011;3286;49.858;8.768;2024-02-14T01:45:46;1.70;;;1.20;;
6505;SDS011;3286;49.858;8.768;2024-02-14T01:48:12;3.27;;;1.10;;
6505;SDS011;3286;49.858;8.768;2024-02-14T01:50:43;2.90;;;1.00;;
6505;SDS011;3286;49.858;8.768;2024-02-14T01:53:10;2.10;;;0.83;;
6505;SDS011;3286;49.858;8.768;2024-02-14T01:55:38;3.53;;;1.50;;
6505;SDS011;3286;49.858;8.768;2024-02-14T01:58:05;3.10;;;1.20;;
6505;SDS011;3286;49.858;8.768;2024-02-14T02:00:33;4.97;;;1.30;;
6505;SDS011;3286;49.858;8.768;2024-02-14T02:03:01;3.10;;;1.40;;
6505;SDS011;3286;49.858;8.768;2024-02-14T02:05:33;3.53;;;1.60;;
6505;SDS011;3286;49.858;8.768;2024-02-14T02:08:00;1.90;;;1.20;;
6505;SDS011;3286;49.858;8.768;2024-02-14T02:10:47;1.20;;;1.10;;
6505;SDS011;3286;49.858;8.768;2024-02-14T02:13:14;4.00;;;1.50;;
6505;SDS011;3286;49.858;8.768;2024-02-14T02:15:42;2.30;;;1.07;;
6505;SDS011;3286;49.858;8.768;2024-02-14T02:18:10;2.00;;;1.20;;
6505;SDS011;3286;49.858;8.768;2024-02-14T02:20:38;1.30;;;0.97;;
6505;SDS011;3286;49.858;8.768;2024-02-14T02:23:09;2.17;;;1.30;;
6505;SDS011;3286;49.858;8.768;2024-02-14T02:25:39;1.30;;;1.00;;
6505;SDS011;3286;49.858;8.768;2024-02-14T02:28:06;2.33;;;1.20;;
6505;SDS011;3286;49.858;8.768;2024-02-14T02:30:34;2.27;;;1.00;;
6505;SDS011;3286;49.858;8.768;2024-02-14T02:33:01;1.87;;;0.93;;
6505;SDS011;3286;49.858;8.768;2024-02-14T02:35:28;1.90;;;1.30;;
6505;SDS011;3286;49.858;8.768;2024-02-14T02:37:55;1.80;;;1.03;;
6505;SDS011;3286;49.858;8.768;2024-02-14T02:40:23;3.23;;;1.30;;
6505;SDS011;3286;49.858;8.768;2024-02-14T02:42:50;2.27;;;1.33;;
6505;SDS011;3286;49.858;8.768;2024-02-14T02:45:17;1.47;;;1.10;;
6505;SDS011;3286;49.858;8.768;2024-02-14T02:47:44;2.93;;;1.20;;
6505;SDS011;3286;49.858;8.768;2024-02-14T02:50:11;1.60;;;1.00;;
6505;SDS011;3286;49.858;8.768;2024-02-14T02:52:38;1.97;;;1.00;;
6505;SDS011;3286;49.858;8.768;2024-02-14T02:55:07;4.10;;;1.30;;
6505;SDS011;3286;49.858;8.768;2024-02-14T02:57:35;3.67;;;1.33;;
6505;SDS011;3286;49.858;8.768;2024-02-14T03:00:04;2.70;;;1.27;;
6505;SDS011;3286;49.858;8.768;2024-02-14T03:02:34;3.07;;;1.37;;
6505;SDS011;3286;49.858;8.768;2024-02-14T03:05:03;6.10;;;1.57;;
6505;SDS011;3286;49.858;8.768;2024-02-14T03:07:31;2.87;;;1.50;;
6505;SDS011;3286;49.858;8.768;2024-02-14T03:09:58;3.67;;;1.40;;
6505;SDS011;3286;49.858;8.768;2024-02-14T03:12:25;2.00;;;1.20;;
6505;SDS011;3286;49.858;8.768;2024-02-14T03:14:55;1.80;;;1.30;;
6505;SDS011;3286;49.858;8.768;2024-02-14T03:17:22;3.10;;;1.40;;
6505;SDS011;3286;49.858;8.768;2024-02-14T03:19:49;5.77;;;1.33;;
6505;SDS011;3286;49.858;8.768;2024-02-14T03:22:17;3.27;;;1.40;;
6505;SDS011;3286;49.858;8.768;2024-02-14T03:24:44;3.73;;;1.07;;
6505;SDS011;3286;49.858;8.768;2024-02-14T03:27:11;2.13;;;1.07;;
6505;SDS011;3286;49.858;8.768;2024-02-14T03:29:38;1.83;;;1.07;;
6505;SDS011;3286;49.858;8.768;2024-02-14T03:32:07;4.60;;;1.30;;
6505;SDS011;3286;49.858;8.768;2024-02-14T03:34:34;3.10;;;0.90;;
6505;SDS011;3286;49.858;8.768;2024-02-14T03:37:01;4.00;;;1.30;;
6505;SDS011;3286;49.858;8.768;2024-02-14T03:39:28;1.70;;;1.03;;
6505;SDS011;3286;49.858;8.768;2024-02-14T03:41:55;1.97;;;1.10;;
6505;SDS011;3286;49.858;8.768;2024-02-14T03:44:22;1.87;;;1.17;;
6505;SDS011;3286;49.858;8.768;2024-02-14T03:46:49;2.00;;;1.03;;
6505;SDS011;3286;49.858;8.768;2024-02-14T03:49:17;2.57;;;1.50;;
6505;SDS011;3286;49.858;8.768;2024-02-14T03:51:45;2.70;;;1.43;;
6505;SDS011;3286;49.858;8.768;2024-02-14T03:54:14;2.20;;;1.30;;
6505;SDS011;3286;49.858;8.768;2024-02-14T03:56:41;3.70;;;1.40;;
6505;SDS011;3286;49.858;8.768;2024-02-14T03:59:07;2.40;;;1.20;;
6505;SDS011;3286;49.858;8.768;2024-02-14T04:01:34;1.90;;;1.30;;
6505;SDS011;3286;49.858;8.768;2024-02-14T04:04:01;1.80;;;1.30;;
6505;SDS011;3286;49.858;8.768;2024-02-14T04:06:29;2.10;;;1.30;;
6505;SDS011;3286;49.858;8.768;2024-02-14T04:08:57;3.33;;;1.17;;
6505;SDS011;3286;49.858;8.768;2024-02-14T04:11:24;4.43;;;1.40;;
6505;SDS011;3286;49.858;8.768;2024-02-14T04:13:50;2.53;;;1.37;;
6505;SDS011;3286;49.858;8.768;2024-02-14T04:16:18;2.53;;;1.30;;
6505;SDS011;3286;49.858;8.768;2024-02-14T04:18:46;1.53;;;1.23;;
6505;SDS011;3286;49.858;8.768;2024-02-14T04:21:13;5.40;;;1.10;;
6505;SDS011;3286;49.858;8.768;2024-02-14T04:23:41;4.13;;;1.30;;
6505;SDS011;3286;49.858;8.768;2024-02-14T04:26:08;1.80;;;1.20;;
6505;SDS011;3286;49.858;8.768;2024-02-14T04:28:35;4.23;;;1.30;;
6505;SDS011;3286;49.858;8.768;2024-02-14T04:31:01;2.90;;;1.30;;
6505;SDS011;3286;49.858;8.768;2024-02-14T04:33:27;3.20;;;1.07;;
6505;SDS011;3286;49.858;8.768;2024-02-14T04:35:54;1.90;;;1.30;;
6505;SDS011;3286;49.858;8.768;2024-02-14T04:38:21;2.40;;;1.60;;
6505;SDS011;3286;49.858;8.768;2024-02-14T04:40:49;2.00;;;1.30;;
6505;SDS011;3286;49.858;8.768;2024-02-14T04:43:17;1.60;;;1.20;;
6505;SDS011;3286;49.858;8.768;2024-02-14T04:45:44;3.93;;;1.40;;
6505;SDS011;3286;49.858;8.768;2024-02-14T04:48:11;3.20;;;1.40;;
6505;SDS011;3286;49.858;8.768;2024-02-14T04:50:38;3.10;;;1.77;;
6505;SDS011;3286;49.858;8.768;2024-02-14T04:53:05;3.03;;;1.80;;
6505;SDS011;3286;49.858;8.768;2024-02-14T04:55:32;1.90;;;1.40;;
6505;SDS011;3286;49.858;8.768;2024-02-14T04:58:00;3.70;;;1.63;;
6505;SDS011;3286;49.858;8.768;2024-02-14T05:00:26;8.70;;;1.77;;
6505;SDS011;3286;49.858;8.768;2024-02-14T05:02:53;5.87;;;1.80;;
6505;SDS011;3286;49.858;8.768;2024-02-14T05:05:20;3.03;;;1.50;;
6505;SDS011;3286;49.858;8.768;2024-02-14T05:07:47;3.37;;;1.63;;
6505;SDS011;3286;49.858;8.768;2024-02-14T05:10:13;3.93;;;1.90;;
6505;SDS011;3286;49.858;8.768;2024-02-14T05:12:40;4.40;;;2.10;;
6505;SDS011;3286;49.858;8.768;2024-02-14T05:15:11;4.00;;;2.70;;
6505;SDS011;3286;49.858;8.768;2024-02-14T05:17:41;8.47;;;3.07;;
6505;SDS011;3286;49.858;8.768;2024-02-14T05:20:08;2.83;;;1.67;;
6505;SDS011;3286;49.858;8.768;2024-02-14T05:22:36;3.20;;;1.60;;
6505;SDS011;3286;49.858;8.768;2024-02-14T05:25:03;4.10;;;1.70;;
6505;SDS011;3286;49.858;8.768;2024-02-14T05:27:32;3.23;;;1.60;;
6505;SDS011;3286;49.858;8.768;2024-02-14T05:29:59;3.27;;;1.60;;
6505;SDS011;3286;49.858;8.768;2024-02-14T05:32:27;5.27;;;1.73;;
6505;SDS011;3286;49.858;8.768;2024-02-14T05:34:54;3.37;;;1.87;;
6505;SDS011;3286;49.858;8.768;2024-02-14T05:37:20;2.33;;;1.40;;
6505;SDS011;3286;49.858;8.768;2024-02-14T05:39:47;4.57;;;1.73;;
6505;SDS011;3286;49.858;8.768;2024-02-14T05:42:14;14.93;;;1.80;;
6505;SDS011;3286;49.858;8.768;2024-02-14T05:44:41;7.57;;;1.87;;
6505;SDS011;3286;49.858;8.768;2024-02-14T05:47:08;4.00;;;1.60;;
6505;SDS011;3286;49.858;8.768;2024-02-14T05:49:37;3.67;;;1.77;;
6505;SDS011;3286;49.858;8.768;2024-02-14T05:52:04;8.23;;;1.90;;
6505;SDS011;3286;49.858;8.768;2024-02-14T05:54:31;1.70;;;1.40;;
6505;SDS011;3286;49.858;8.768;2024-02-14T05:56:58;3.97;;;1.60;;
6505;SDS011;3286;49.858;8.768;2024-02-14T05:59:24;2.07;;;1.57;;
6505;SDS011;3286;49.858;8.768;2024-02-14T06:01:51;4.47;;;1.83;;
6505;SDS011;3286;49.858;8.768;2024-02-14T06:04:18;6.03;;;2.70;;
6505;SDS011;3286;49.858;8.768;2024-02-14T06:06:46;2.47;;;1.50;;
6505;SDS011;3286;49.858;8.768;2024-02-14T06:09:12;3.00;;;1.50;;
6505;SDS011;3286;49.858;8.768;2024-02-14T06:11:39;4.00;;;1.70;;
6505;SDS011;3286;49.858;8.768;2024-02-14T06:14:06;3.87;;;1.90;;
6505;SDS011;3286;49.858;8.768;2024-02-14T06:16:33;3.60;;;1.83;;
6505;SDS011;3286;49.858;8.768;2024-02-14T06:19:00;3.00;;;1.60;;
6505;SDS011;3286;49.858;8.768;2024-02-14T06:21:29;4.00;;;1.53;;
6505;SDS011;3286;49.858;8.768;2024-02-14T06:23:58;3.20;;;1.77;;
6505;SDS011;3286;49.858;8.768;2024-02-14T06:26:25;4.00;;;2.00;;
6505;SDS011;3286;49.858;8.768;2024-02-14T06:28:52;4.80;;;2.10;;
6505;SDS011;3286;49.858;8.768;2024-02-14T06:31:19;2.77;;;1.87;;
6505;SDS011;3286;49.858;8.768;2024-02-14T06:33:46;5.37;;;2.10;;
6505;SDS011;3286;49.858;8.768;2024-02-14T06:36:13;3.33;;;2.00;;
6505;SDS011;3286;49.858;8.768;2024-02-14T06:38:40;5.20;;;1.70;;
6505;SDS011;3286;49.858;8.768;2024-02-14T06:41:08;8.40;;;1.93;;
6505;SDS011;3286;49.858;8.768;2024-02-14T06:43:34;2.87;;;1.73;;
6505;SDS011;3286;49.858;8.768;2024-02-14T06:46:04;2.93;;;1.57;;
6505;SDS011;3286;49.858;8.768;2024-02-14T06:48:30;4.20;;;1.80;;
6505;SDS011;3286;49.858;8.768;2024-02-14T06:50:57;3.67;;;1.83;;
6505;SDS011;3286;49.858;8.768;2024-02-14T06:53:24;3.80;;;1.93;;
6505;SDS011;3286;49.858;8.768;2024-02-14T06:55:51;3.03;;;1.77;;
6505;SDS011;3286;49.858;8.768;2024-02-14T06:58:19;3.73;;;2.10;;
6505;SDS011;3286;49.858;8.768;2024-02-14T07:00:45;4.30;;;2.03;;
6505;SDS011;3286;49.858;8.768;2024-02-14T07:03:12;8.07;;;2.07;;
6505;SDS011;3286;49.858;8.768;2024-02-14T07:05:38;3.13;;;1.93;;
6505;SDS011;3286;49.858;8.768;2024-02-14T07:08:06;5.53;;;2.37;;
6505;SDS011;3286;49.858;8.768;2024-02-14T07:10:32;2.93;;;1.90;;
6505;SDS011;3286;49.858;8.768;2024-02-14T07:12:59;5.93;;;2.23;;
6505;SDS011;3286;49.858;8.768;2024-02-14T07:15:27;3.87;;;2.13;;
6505;SDS011;3286;49.858;8.768;2024-02-14T07:17:54;2.23;;;1.93;;
6505;SDS011;3286;49.858;8.768;2024-02-14T07:20:23;7.33;;;1.93;;
6505;SDS011;3286;49.858;8.768;2024-02-14T07:22:51;4.13;;;1.93;;
6505;SDS011;3286;49.858;8.768;2024-02-14T07:25:18;7.20;;;1.70;;
6505;SDS011;3286;49.858;8.768;2024-02-14T07:27:45;2.80;;;1.90;;
6505;SDS011;3286;49.858;8.768;2024-02-14T07:30:14;2.90;;;1.77;;
6505;SDS011;3286;49.858;8.768;2024-02-14T07:32:43;3.37;;;2.10;;
6505;SDS011;3286;49.858;8.768;2024-02-14T07:35:09;3.03;;;1.67;;
6505;SDS011;3286;49.858;8.768;2024-02-14T07:37:36;4.27;;;1.90;;
6505;SDS011;3286;49.858;8.768;2024-02-14T07:40:03;3.27;;;1.80;;
6505;SDS011;3286;49.858;8.768;2024-02-14T07:42:30;2.17;;;1.80;;
6505;SDS011;3286;49.858;8.768;2024-02-14T07:44:57;5.00;;;2.10;;
6505;SDS011;3286;49.858;8.768;2024-02-14T07:47:24;5.30;;;1.80;;
6505;SDS011;3286;49.858;8.768;2024-02-14T07:49:52;3.10;;;1.90;;
6505;SDS011;3286;49.858;8.768;2024-02-14T07:52:19;6.57;;;2.27;;
6505;SDS011;3286;49.858;8.768;2024-02-14T07:54:46;5.10;;;2.03;;
6505;SDS011;3286;49.858;8.768;2024-02-14T07:57:13;4.23;;;2.23;;
6505;SDS011;3286;49.858;8.768;2024-02-14T07:59:39;1.50;;;1.40;;
6505;SDS011;3286;49.858;8.768;2024-02-14T08:02:06;11.97;;;3.50;;
6505;SDS011;3286;49.858;8.768;2024-02-14T08:04:32;3.77;;;1.63;;
6505;SDS011;3286;49.858;8.768;2024-02-14T08:07:00;6.47;;;2.63;;
6505;SDS011;3286;49.858;8.768;2024-02-14T08:09:27;5.13;;;1.93;;
6505;SDS011;3286;49.858;8.768;2024-02-14T08:11:56;3.37;;;1.60;;
6505;SDS011;3286;49.858;8.768;2024-02-14T08:14:22;4.00;;;1.70;;
6505;SDS011;3286;49.858;8.768;2024-02-14T08:16:49;4.57;;;2.00;;
6505;SDS011;3286;49.858;8.768;2024-02-14T08:19:16;4.33;;;1.80;;
6505;SDS011;3286;49.858;8.768;2024-02-14T08:21:43;7.27;;;1.93;;
6505;SDS011;3286;49.858;8.768;2024-02-14T08:24:11;7.80;;;2.27;;
6505;SDS011;3286;49.858;8.768;2024-02-14T08:26:38;3.33;;;1.83;;
6505;SDS011;3286;49.858;8.768;2024-02-14T08:29:04;3.93;;;2.17;;
6505;SDS011;3286;49.858;8.768;2024-02-14T08:31:31;3.90;;;1.47;;
6505;SDS011;3286;49.858;8.768;2024-02-14T08:33:58;4.13;;;1.80;;
6505;SDS011;3286;49.858;8.768;2024-02-14T08:36:25;4.13;;;1.80;;
6505;SDS011;3286;49.858;8.768;2024-02-14T08:38:51;3.63;;;1.87;;
6505;SDS011;3286;49.858;8.768;2024-02-14T08:41:19;2.67;;;1.60;;
6505;SDS011;3286;49.858;8.768;2024-02-14T08:43:48;2.10;;;1.67;;
6505;SDS011;3286;49.858;8.768;2024-02-14T08:46:16;2.70;;;1.57;;
6505;SDS011;3286;49.858;8.768;2024-02-14T08:48:43;4.93;;;1.90;;
6505;SDS011;3286;49.858;8.768;2024-02-14T08:51:11;3.80;;;1.97;;
6505;SDS011;3286;49.858;8.768;2024-02-14T08:53:38;2.17;;;1.90;;
6505;SDS011;3286;49.858;8.768;2024-02-14T08:56:06;3.23;;;1.63;;
6505;SDS011;3286;49.858;8.768;2024-02-14T08:58:34;1.83;;;1.57;;
6505;SDS011;3286;49.858;8.768;2024-02-14T09:01:01;5.67;;;2.00;;
6505;SDS011;3286;49.858;8.768;2024-02-14T09:03:27;5.50;;;1.97;;
6505;SDS011;3286;49.858;8.768;2024-02-14T09:05:56;5.30;;;2.43;;
6505;SDS011;3286;49.858;8.768;2024-02-14T09:08:22;5.43;;;2.50;;
6505;SDS011;3286;49.858;8.768;2024-02-14T09:10:49;3.20;;;1.77;;
6505;SDS011;3286;49.858;8.768;2024-02-14T09:13:16;3.90;;;2.30;;
6505;SDS011;3286;49.858;8.768;2024-02-14T09:15:44;2.83;;;2.30;;
6505;SDS011;3286;49.858;8.768;2024-02-14T09:18:11;3.10;;;1.73;;
6505;SDS011;3286;49.858;8.768;2024-02-14T09:20:38;5.53;;;2.00;;
6505;SDS011;3286;49.858;8.768;2024-02-14T09:23:04;4.70;;;1.90;;
6505;SDS011;3286;49.858;8.768;2024-02-14T09:25:31;3.13;;;1.77;;
6505;SDS011;3286;49.858;8.768;2024-02-14T09:27:57;3.17;;;1.97;;
6505;SDS011;3286;49.858;8.768;2024-02-14T09:30:24;5.70;;;2.10;;
6505;SDS011;3286;49.858;8.768;2024-02-14T09:32:52;2.17;;;1.67;;
6505;SDS011;3286;49.858;8.768;2024-02-14T09:35:19;2.43;;;1.70;;
6505;SDS011;3286;49.858;8.768;2024-02-14T09:37:45;4.13;;;1.87;;
6505;SDS011;3286;49.858;8.768;2024-02-14T09:40:12;2.10;;;1.90;;
6505;SDS011;3286;49.858;8.768;2024-02-14T09:42:42;3.43;;;1.77;;
6505;SDS011;3286;49.858;8.768;2024-02-14T09:45:10;3.50;;;1.77;;
6505;SDS011;3286;49.858;8.768;2024-02-14T09:47:37;4.37;;;1.97;;
6505;SDS011;3286;49.858;8.768;2024-02-14T09:50:07;2.43;;;1.60;;
6505;SDS011;3286;49.858;8.768;2024-02-14T09:52:35;2.93;;;1.80;;
6505;SDS011;3286;49.858;8.768;2024-02-14T09:55:04;5.20;;;1.97;;
6505;SDS011;3286;49.858;8.768;2024-02-14T09:57:32;3.30;;;1.83;;
6505;SDS011;3286;49.858;8.768;2024-02-14T10:00:00;4.57;;;1.60;;
6505;SDS011;3286;49.858;8.768;2024-02-14T10:02:27;2.83;;;1.90;;
6505;SDS011;3286;49.858;8.768;2024-02-14T10:04:56;1.77;;;1.40;;
6505;SDS011;3286;49.858;8.768;2024-02-14T10:07:24;1.97;;;1.50;;
6505;SDS011;3286;49.858;8.768;2024-02-14T10:09:50;2.27;;;1.47;;
6505;SDS011;3286;49.858;8.768;2024-02-14T10:12:17;5.03;;;2.73;;
6505;SDS011;3286;49.858;8.768;2024-02-14T10:14:44;4.93;;;2.30;;
6505;SDS011;3286;49.858;8.768;2024-02-14T10:17:16;3.27;;;1.57;;
6505;SDS011;3286;49.858;8.768;2024-02-14T10:19:43;6.07;;;1.73;;
6505;SDS011;3286;49.858;8.768;2024-02-14T10:22:21;1.60;;;1.37;;
6505;SDS011;3286;49.858;8.768;2024-02-14T10:24:49;2.10;;;1.50;;
6505;SDS011;3286;49.858;8.768;2024-02-14T10:27:16;4.30;;;2.50;;
6505;SDS011;3286;49.858;8.768;2024-02-14T10:29:43;8.77;;;3.00;;
6505;SDS011;3286;49.858;8.768;2024-02-14T10:32:09;2.87;;;1.70;;
6505;SDS011;3286;49.858;8.768;2024-02-14T10:34:37;3.23;;;1.70;;
6505;SDS011;3286;49.858;8.768;2024-02-14T10:37:04;2.10;;;1.60;;
6505;SDS011;3286;49.858;8.768;2024-02-14T10:39:32;4.50;;;2.03;;
6505;SDS011;3286;49.858;8.768;2024-02-14T10:42:03;3.33;;;1.97;;
6505;SDS011;3286;49.858;8.768;2024-02-14T10:44:31;2.20;;;1.63;;
6505;SDS011;3286;49.858;8.768;2024-02-14T10:46:58;3.23;;;1.90;;
6505;SDS011;3286;49.858;8.768;2024-02-14T10:49:28;4.27;;;1.93;;
6505;SDS011;3286;49.858;8.768;2024-02-14T10:51:56;4.70;;;2.27;;
6505;SDS011;3286;49.858;8.768;2024-02-14T10:54:27;2.97;;;1.80;;
6505;SDS011;3286;49.858;8.768;2024-02-14T10:56:54;3.90;;;2.10;;
6505;SDS011;3286;49.858;8.768;2024-02-14T10:59:29;3.13;;;2.00;;
6505;SDS011;3286;49.858;8.768;2024-02-14T11:01:57;2.87;;;1.83;;
6505;SDS011;3286;49.858;8.768;2024-02-14T11:04:24;2.47;;;1.50;;
6505;SDS011;3286;49.858;8.768;2024-02-14T11:06:52;3.70;;;1.73;;
6505;SDS011;3286;49.858;8.768;2024-02-14T11:09:19;4.17;;;1.97;;
6505;SDS011;3286;49.858;8.768;2024-02-14T11:11:46;4.60;;;1.90;;
6505;SDS011;3286;49.858;8.768;2024-02-14T11:14:14;1.70;;;1.60;;
6505;SDS011;3286;49.858;8.768;2024-02-14T11:16:44;3.40;;;1.80;;
6505;SDS011;3286;49.858;8.768;2024-02-14T11:19:12;2.73;;;1.87;;
6505;SDS011;3286;49.858;8.768;2024-02-14T11:21:41;3.37;;;1.60;;
6505;SDS011;3286;49.858;8.768;2024-02-14T11:24:09;3.47;;;1.67;;
6505;SDS011;3286;49.858;8.768;2024-02-14T11:26:40;2.40;;;1.57;;
6505;SDS011;3286;49.858;8.768;2024-02-14T11:29:14;3.33;;;1.97;;
6505;SDS011;3286;49.858;8.768;2024-02-14T11:31:44;2.57;;;1.90;;
6505;SDS011;3286;49.858;8.768;2024-02-14T11:34:11;5.03;;;2.00;;
6505;SDS011;3286;49.858;8.768;2024-02-14T11:36:38;2.53;;;1.87;;
6505;SDS011;3286;49.858;8.768;2024-02-14T11:39:07;2.93;;;1.83;;
6505;SDS011;3286;49.858;8.768;2024-02-14T11:41:34;6.77;;;1.93;;
6505;SDS011;3286;49.858;8.768;2024-02-14T11:44:01;5.83;;;2.00;;
6505;SDS011;3286;49.858;8.768;2024-02-14T11:46:29;3.03;;;1.93;;
6505;SDS011;3286;49.858;8.768;2024-02-14T11:48:59;2.73;;;1.80;;
6505;SDS011;3286;49.858;8.768;2024-02-14T11:51:27;2.33;;;1.90;;
6505;SDS011;3286;49.858;8.768;2024-02-14T11:53:55;5.00;;;1.90;;
6505;SDS011;3286;49.858;8.768;2024-02-14T11:56:22;3.77;;;1.93;;
6505;SDS011;3286;49.858;8.768;2024-02-14T11:58:51;2.87;;;2.13;;
6505;SDS011;3286;49.858;8.768;2024-02-14T12:01:18;4.87;;;1.83;;
6505;SDS011;3286;49.858;8.768;2024-02-14T12:03:45;1.57;;;1.47;;
6505;SDS011;3286;49.858;8.768;2024-02-14T12:06:13;5.43;;;1.90;;
6505;SDS011;3286;49.858;8.768;2024-02-14T12:08:43;3.27;;;1.83;;
6505;SDS011;3286;49.858;8.768;2024-02-14T12:11:10;3.50;;;1.60;;
6505;SDS011;3286;49.858;8.768;2024-02-14T12:13:37;2.63;;;1.60;;
6505;SDS011;3286;49.858;8.768;2024-02-14T12:16:08;3.50;;;1.63;;
6505;SDS011;3286;49.858;8.768;2024-02-14T12:18:36;2.90;;;1.70;;
6505;SDS011;3286;49.858;8.768;2024-02-14T12:21:05;1.93;;;1.53;;
6505;SDS011;3286;49.858;8.768;2024-02-14T12:23:35;4.03;;;1.70;;
6505;SDS011;3286;49.858;8.768;2024-02-14T12:26:02;1.73;;;1.40;;
6505;SDS011;3286;49.858;8.768;2024-02-14T12:28:30;1.47;;;1.37;;
6505;SDS011;3286;49.858;8.768;2024-02-14T12:30:57;4.07;;;1.53;;
6505;SDS011;3286;49.858;8.768;2024-02-14T12:33:24;2.13;;;1.40;;
6505;SDS011;3286;49.858;8.768;2024-02-14T12:35:53;4.33;;;1.90;;
6505;SDS011;3286;49.858;8.768;2024-02-14T12:38:22;3.17;;;2.57;;
6505;SDS011;3286;49.858;8.768;2024-02-14T12:40:50;6.27;;;2.40;;
6505;SDS011;3286;49.858;8.768;2024-02-14T12:43:19;2.83;;;1.90;;
6505;SDS011;3286;49.858;8.768;2024-02-14T12:45:46;2.57;;;1.50;;
6505;SDS011;3286;49.858;8.768;2024-02-14T12:48:12;3.60;;;1.70;;
6505;SDS011;3286;49.858;8.768;2024-02-14T12:50:40;4.40;;;1.70;;
6505;SDS011;3286;49.858;8.768;2024-02-14T12:53:12;1.93;;;1.60;;
6505;SDS011;3286;49.858;8.768;2024-02-14T12:55:39;3.60;;;1.80;;
6505;SDS011;3286;49.858;8.768;2024-02-14T12:58:07;3.00;;;1.70;;
6505;SDS011;3286;49.858;8.768;2024-02-14T13:00:34;2.30;;;1.37;;
6505;SDS011;3286;49.858;8.768;2024-02-14T13:03:01;2.53;;;1.73;;
6505;SDS011;3286;49.858;8.768;2024-02-14T13:05:28;1.57;;;1.40;;
6505;SDS011;3286;49.858;8.768;2024-02-14T13:07:55;4.27;;;1.50;;
6505;SDS011;3286;49.858;8.768;2024-02-14T13:10:21;3.73;;;2.03;;
6505;SDS011;3286;49.858;8.768;2024-02-14T13:12:48;3.50;;;2.03;;
6505;SDS011;3286;49.858;8.768;2024-02-14T13:15:17;2.10;;;1.50;;
6505;SDS011;3286;49.858;8.768;2024-02-14T13:17:44;2.93;;;1.93;;
6505;SDS011;3286;49.858;8.768;2024-02-14T13:20:11;2.33;;;1.60;;
6505;SDS011;3286;49.858;8.768;2024-02-14T13:22:40;2.00;;;1.50;;
6505;SDS011;3286;49.858;8.768;2024-02-14T13:25:07;5.00;;;1.70;;
6505;SDS011;3286;49.858;8.768;2024-02-14T13:27:34;2.60;;;1.70;;
6505;SDS011;3286;49.858;8.768;2024-02-14T13:30:00;1.57;;;1.37;;
6505;SDS011;3286;49.858;8.768;2024-02-14T13:32:28;4.07;;;1.80;;
6505;SDS011;3286;49.858;8.768;2024-02-14T13:34:55;2.60;;;1.40;;
6505;SDS011;3286;49.858;8.768;2024-02-14T13:37:22;3.80;;;1.77;;
6505;SDS011;3286;49.858;8.768;2024-02-14T13:39:48;2.10;;;1.67;;
6505;SDS011;3286;49.858;8.768;2024-02-14T13:42:15;3.80;;;2.03;;
6505;SDS011;3286;49.858;8.768;2024-02-14T13:44:42;2.77;;;2.00;;
6505;SDS011;3286;49.858;8.768;2024-02-14T13:47:09;2.27;;;1.40;;
6505;SDS011;3286;49.858;8.768;2024-02-14T13:49:37;2.17;;;1.80;;
6505;SDS011;3286;49.858;8.768;2024-02-14T13:52:04;3.87;;;1.83;;
6505;SDS011;3286;49.858;8.768;2024-02-14T13:54:30;3.07;;;1.93;;
6505;SDS011;3286;49.858;8.768;2024-02-14T13:56:57;4.03;;;1.60;;
6505;SDS011;3286;49.858;8.768;2024-02-14T13:59:24;2.67;;;2.00;;
6505;SDS011;3286;49.858;8.768;2024-02-14T14:01:51;5.67;;;2.03;;
6505;SDS011;3286;49.858;8.768;2024-02-14T14:04:18;2.23;;;1.80;;
6505;SDS011;3286;49.858;8.768;2024-02-14T14:06:48;3.40;;;2.00;;
6505;SDS011;3286;49.858;8.768;2024-02-14T14:09:14;3.07;;;1.60;;
6505;SDS011;3286;49.858;8.768;2024-02-14T14:11:41;2.07;;;1.87;;
6505;SDS011;3286;49.858;8.768;2024-02-14T14:14:08;3.23;;;1.90;;
6505;SDS011;3286;49.858;8.768;2024-02-14T14:16:40;2.10;;;1.90;;
6505;SDS011;3286;49.858;8.768;2024-02-14T14:19:09;4.47;;;2.00;;
6505;SDS011;3286;49.858;8.768;2024-02-14T14:21:36;4.73;;;2.10;;
6505;SDS011;3286;49.858;8.768;2024-02-14T14:24:05;3.70;;;2.30;;
6505;SDS011;3286;49.858;8.768;2024-02-14T14:26:32;5.03;;;2.73;;
6505;SDS011;3286;49.858;8.768;2024-02-14T14:29:00;6.33;;;2.27;;
6505;SDS011;3286;49.858;8.768;2024-02-14T14:31:27;4.77;;;2.50;;
6505;SDS011;3286;49.858;8.768;2024-02-14T14:33:54;4.23;;;2.70;;
6505;SDS011;3286;49.858;8.768;2024-02-14T14:36:22;3.27;;;2.50;;
6505;SDS011;3286;49.858;8.768;2024-02-14T14:38:49;4.50;;;3.20;;
6505;SDS011;3286;49.858;8.768;2024-02-14T14:41:17;6.80;;;4.30;;
6505;SDS011;3286;49.858;8.768;2024-02-14T14:43:43;4.77;;;2.20;;
6505;SDS011;3286;49.858;8.768;2024-02-14T14:46:10;5.17;;;2.83;;
6505;SDS011;3286;49.858;8.768;2024-02-14T14:48:38;4.93;;;2.87;;
6505;SDS011;3286;49.858;8.768;2024-02-14T14:51:04;4.07;;;2.43;;
6505;SDS011;3286;49.858;8.768;2024-02-14T14:53:32;3.33;;;2.07;;
6505;SDS011;3286;49.858;8.768;2024-02-14T14:56:00;3.87;;;2.37;;
6505;SDS011;3286;49.858;8.768;2024-02-14T14:58:29;3.60;;;2.00;;
6505;SDS011;3286;49.858;8.768;2024-02-14T15:00:58;3.97;;;2.10;;
6505;SDS011;3286;49.858;8.768;2024-02-14T15:03:25;2.33;;;2.13;;
6505;SDS011;3286;49.858;8.768;2024-02-14T15:05:52;5.60;;;2.20;;
6505;SDS011;3286;49.858;8.768;2024-02-14T15:08:19;4.00;;;2.53;;
6505;SDS011;3286;49.858;8.768;2024-02-14T15:10:50;4.20;;;2.87;;
6505;SDS011;3286;49.858;8.768;2024-02-14T15:13:17;3.83;;;2.70;;
6505;SDS011;3286;49.858;8.768;2024-02-14T15:15:47;3.47;;;2.40;;